Time;durP1;ratioP1;P1;durP2;ratioP2;P2;SDS_P1;SDS_P2;PMS_P1;PMS_P2;Temp;Humidity;BMP_temperature;BMP_pressure;BME280_temperature;BME280_humidity;BME280_pressure;Samples;Min_cycle;Max_cycle;Signal;HPM_P1;HPM_P2
2022/06/08 00:01:51;;;;;;;21.27;17.58;;;15.10;99.90;;;;;;5037060;28;20164;-59
2022/06/08 00:04:17;;;;;;;17.73;15.80;;;15.20;99.90;;;;;;5040529;28;20021;-59
2022/06/08 00:06:43;;;;;;;24.67;20.17;;;15.20;99.90;;;;;;5064772;28;20366;-59
2022/06/08 00:09:09;;;;;;;25.83;20.58;;;15.20;99.90;;;;;;5050228;28;20032;-59
2022/06/08 00:11:35;;;;;;;25.67;21.20;;;15.20;99.90;;;;;;5043028;28;20014;-59
2022/06/08 00:14:01;;;;;;;28.77;22.83;;;15.30;99.90;;;;;;5035769;28;20016;-59
2022/06/08 00:16:26;;;;;;;28.17;22.48;;;15.20;99.90;;;;;;5035527;28;20013;-59
2022/06/08 00:18:52;;;;;;;22.30;18.73;;;15.20;99.90;;;;;;5041585;28;20543;-59
2022/06/08 00:21:18;;;;;;;24.98;20.08;;;15.10;99.90;;;;;;5033787;28;20029;-59
2022/06/08 00:23:45;;;;;;;28.55;22.35;;;15.20;99.90;;;;;;5035818;28;20442;-59
2022/06/08 00:26:10;;;;;;;24.50;19.92;;;15.10;99.90;;;;;;5041977;28;20091;-59
2022/06/08 00:28:36;;;;;;;27.17;19.38;;;15.20;99.90;;;;;;5035616;28;20025;-59
2022/06/08 00:31:02;;;;;;;27.38;21.95;;;15.20;99.90;;;;;;5033205;28;20469;-59
2022/06/08 00:33:28;;;;;;;25.40;20.80;;;15.10;99.90;;;;;;5038591;28;20087;-59
2022/06/08 00:35:54;;;;;;;27.17;22.05;;;15.20;99.90;;;;;;5035713;28;20038;-59
2022/06/08 00:38:19;;;;;;;28.25;23.02;;;15.20;99.90;;;;;;5037631;28;20036;-59
2022/06/08 00:41:08;;;;;;;31.02;24.63;;;15.20;99.90;;;;;;5037761;28;20055;-59
2022/06/08 00:43:35;;;;;;;29.05;23.27;;;15.20;99.90;;;;;;5033511;28;20028;-59
2022/06/08 00:46:03;;;;;;;29.20;23.70;;;15.10;99.90;;;;;;5034257;28;20091;-59
2022/06/08 00:48:33;;;;;;;29.48;23.52;;;15.10;99.90;;;;;;5037564;28;20048;-59
2022/06/08 00:50:59;;;;;;;32.72;24.77;;;15.10;99.90;;;;;;5043931;28;20577;-59
2022/06/08 00:53:34;;;;;;;30.33;24.77;;;15.10;99.90;;;;;;5044828;28;20124;-59
2022/06/08 00:56:02;;;;;;;28.20;22.50;;;15.00;99.90;;;;;;5037150;28;20378;-61
2022/06/08 00:58:30;;;;;;;29.50;23.80;;;15.00;99.90;;;;;;5040244;28;20036;-60
2022/06/08 01:00:58;;;;;;;30.88;24.88;;;15.00;99.90;;;;;;5042928;28;20029;-60
2022/06/08 01:03:26;;;;;;;31.73;25.55;;;14.90;99.90;;;;;;5042977;28;20440;-60
2022/06/08 01:06:01;;;;;;;36.95;26.98;;;14.90;99.90;;;;;;5044947;28;20048;-60
2022/06/08 01:08:32;;;;;;;32.45;25.38;;;14.90;99.90;;;;;;5041216;28;20014;-60
2022/06/08 01:11:02;;;;;;;38.30;27.13;;;14.80;99.90;;;;;;5035604;28;20017;-61
2022/06/08 01:13:31;;;;;;;33.67;26.77;;;14.80;99.90;;;;;;5036966;28;20018;-60
2022/06/08 01:16:01;;;;;;;36.38;27.70;;;14.80;99.90;;;;;;5037739;28;20045;-60
2022/06/08 01:18:26;;;;;;;40.55;28.83;;;14.80;99.90;;;;;;5047776;28;20033;-60
2022/06/08 01:20:55;;;;;;;40.72;29.30;;;14.70;99.90;;;;;;5032391;28;20668;-60
2022/06/08 01:23:22;;;;;;;39.10;28.10;;;14.70;99.90;;;;;;5042824;28;20025;-60
2022/06/08 01:26:17;;;;;;;39.45;28.02;;;14.80;99.90;;;;;;5054705;28;20029;-60
2022/06/08 01:28:53;;;;;;;42.58;29.98;;;14.80;99.90;;;;;;5043787;28;20032;-60
2022/06/08 01:31:29;;;;;;;46.55;30.42;;;14.80;99.90;;;;;;5037306;28;20087;-60
2022/06/08 01:34:21;;;;;;;42.58;31.77;;;14.80;99.90;;;;;;5039732;28;20049;-60
2022/06/08 01:37:04;;;;;;;41.38;31.05;;;14.90;99.90;;;;;;5026075;28;20037;-60
2022/06/08 01:39:41;;;;;;;45.97;32.90;;;14.90;99.90;;;;;;5037026;28;20095;-60
2022/06/08 01:42:18;;;;;;;45.13;31.67;;;14.90;99.90;;;;;;5036822;28;20028;-60
2022/06/08 01:48:03;;;;;;;43.22;30.80;;;14.80;99.90;;;;;;5037483;28;20044;-60
2022/06/08 01:50:43;;;;;;;44.90;31.25;;;14.80;99.90;;;;;;5042110;28;20021;-60
2022/06/08 01:53:21;;;;;;;41.80;30.95;;;14.80;99.90;;;;;;5035776;28;20148;-60
2022/06/08 01:56:10;;;;;;;42.92;30.30;;;14.70;99.90;;;;;;5037625;28;20101;-60
2022/06/08 01:59:09;;;;;;;42.67;31.43;;;14.70;99.90;;;;;;5036229;28;20393;-60
2022/06/08 02:02:15;;;;;;;42.03;31.08;;;14.60;99.90;;;;;;5037444;28;20067;-60
2022/06/08 02:04:51;;;;;;;44.03;30.90;;;14.60;99.90;;;;;;5016564;28;20489;-60
2022/06/08 02:07:19;;;;;;;41.72;31.20;;;14.60;99.90;;;;;;5044081;28;20013;-60
2022/06/08 02:09:58;;;;;;;44.17;32.50;;;14.60;99.90;;;;;;5046466;28;20017;-60
2022/06/08 02:12:26;;;;;;;45.47;32.22;;;14.50;99.90;;;;;;5043484;28;20070;-60
2022/06/08 02:14:58;;;;;;;42.17;30.60;;;14.50;99.90;;;;;;5042004;28;20025;-60
2022/06/08 02:17:38;;;;;;;45.35;33.67;;;14.50;99.90;;;;;;5040934;28;20028;-60
2022/06/08 02:20:14;;;;;;;43.55;33.72;;;14.50;99.90;;;;;;5046770;28;20025;-60
2022/06/08 02:22:47;;;;;;;42.42;31.48;;;14.50;99.90;;;;;;5038252;28;20082;-60
2022/06/08 02:25:21;;;;;;;46.13;32.85;;;14.50;99.90;;;;;;5039616;28;20044;-60
2022/06/08 02:27:55;;;;;;;43.90;33.38;;;14.40;99.90;;;;;;5044485;28;20114;-60
2022/06/08 02:30:25;;;;;;;43.63;33.20;;;14.40;99.90;;;;;;5032681;28;20014;-60
2022/06/08 02:35:49;;;;;;;44.70;32.88;;;14.40;99.90;;;;;;5046259;28;20060;-60
2022/06/08 02:38:20;;;;;;;47.13;34.42;;;14.30;99.90;;;;;;5033751;28;20030;-60
2022/06/08 02:40:54;;;;;;;46.22;31.95;;;14.30;99.90;;;;;;5037866;28;20029;-60
2022/06/08 02:43:35;;;;;;;46.58;33.20;;;14.30;99.90;;;;;;5039670;28;20437;-60
2022/06/08 02:46:17;;;;;;;41.33;32.40;;;14.30;99.90;;;;;;5047244;28;20024;-60
2022/06/08 02:48:42;;;;;;;46.15;32.70;;;14.30;99.90;;;;;;5038200;28;20496;-60
2022/06/08 02:51:08;;;;;;;46.03;33.75;;;14.30;99.90;;;;;;5037725;28;20026;-60
2022/06/08 02:53:34;;;;;;;52.53;35.15;;;14.30;99.90;;;;;;5036370;28;20052;-60
2022/06/08 02:56:05;;;;;;;47.08;34.30;;;14.30;99.90;;;;;;5033068;28;20029;-60
2022/06/08 02:58:52;;;;;;;46.30;34.55;;;14.30;99.90;;;;;;5040698;28;20033;-60
2022/06/08 03:01:40;;;;;;;44.38;33.42;;;14.30;99.90;;;;;;5039732;28;20026;-60
2022/06/08 03:04:15;;;;;;;49.92;36.15;;;14.20;99.90;;;;;;5045135;28;20075;-60
2022/06/08 03:06:48;;;;;;;48.35;35.38;;;14.20;99.90;;;;;;5034969;28;20022;-60
2022/06/08 03:09:17;;;;;;;45.97;34.20;;;14.10;99.90;;;;;;5031446;28;20017;-60
2022/06/08 03:11:46;;;;;;;49.83;36.67;;;14.10;99.90;;;;;;5044304;28;20057;-60
2022/06/08 03:14:16;;;;;;;44.70;33.55;;;14.10;99.90;;;;;;5042601;28;20409;-60
2022/06/08 03:16:52;;;;;;;47.10;34.80;;;14.00;99.90;;;;;;5036163;28;20032;-60
2022/06/08 03:19:18;;;;;;;46.60;34.25;;;14.00;99.90;;;;;;5042068;28;20029;-60
2022/06/08 03:21:44;;;;;;;47.22;35.05;;;13.90;99.90;;;;;;5041792;28;20199;-60
2022/06/08 03:24:10;;;;;;;47.53;34.78;;;14.00;99.90;;;;;;5047572;28;20025;-60
2022/06/08 03:26:39;;;;;;;48.85;34.25;;;14.00;99.90;;;;;;5037875;28;20031;-59
2022/06/08 03:29:05;;;;;;;47.13;34.60;;;14.00;99.90;;;;;;5035314;28;20029;-58
2022/06/08 03:31:31;;;;;;;44.10;33.75;;;14.00;99.90;;;;;;5034583;28;20017;-59
2022/06/08 03:33:56;;;;;;;48.67;35.22;;;13.90;99.90;;;;;;5034179;28;20105;-59
2022/06/08 03:36:22;;;;;;;46.55;35.08;;;13.90;99.90;;;;;;5035300;28;20388;-59
2022/06/08 03:38:47;;;;;;;47.38;33.95;;;13.90;99.90;;;;;;5042890;28;20521;-59
2022/06/08 03:41:13;;;;;;;43.53;33.03;;;13.90;99.90;;;;;;5038440;28;20025;-59
2022/06/08 03:43:39;;;;;;;48.65;34.17;;;13.90;99.90;;;;;;5036454;28;20409;-59
2022/06/08 03:46:07;;;;;;;42.10;32.95;;;14.00;99.90;;;;;;5041446;28;20120;-59
2022/06/08 03:48:33;;;;;;;41.50;30.90;;;14.00;99.90;;;;;;5043271;28;20063;-59
2022/06/08 03:51:00;;;;;;;39.47;30.02;;;14.00;99.90;;;;;;5037354;28;20020;-59
2022/06/08 03:53:37;;;;;;;41.10;30.17;;;14.00;99.90;;;;;;5034852;28;20052;-59
2022/06/08 03:56:06;;;;;;;39.13;30.27;;;14.00;99.90;;;;;;5039747;28;20104;-59
2022/06/08 03:58:32;;;;;;;40.67;31.15;;;14.00;99.90;;;;;;5040172;28;20024;-59
2022/06/08 04:00:58;;;;;;;39.25;30.50;;;14.00;99.90;;;;;;5042301;28;20025;-59
2022/06/08 04:03:24;;;;;;;39.10;29.02;;;14.00;99.90;;;;;;5037898;28;20036;-59
2022/06/08 04:05:49;;;;;;;36.30;28.77;;;14.00;99.90;;;;;;5043860;28;20087;-59
2022/06/08 04:08:15;;;;;;;39.08;29.83;;;14.00;99.90;;;;;;5044650;28;20469;-59
2022/06/08 04:10:40;;;;;;;37.45;28.70;;;14.00;99.90;;;;;;5037867;28;20139;-59
2022/06/08 04:13:06;;;;;;;37.55;29.73;;;14.10;99.90;;;;;;5041691;28;20104;-59
2022/06/08 04:15:44;;;;;;;35.80;28.15;;;14.10;99.90;;;;;;5043947;28;20021;-59
2022/06/08 04:18:18;;;;;;;34.22;27.80;;;14.10;99.90;;;;;;5036937;28;20083;-59
2022/06/08 04:20:47;;;;;;;38.33;28.13;;;14.10;99.90;;;;;;5036009;28;20029;-59
2022/06/08 04:23:13;;;;;;;37.05;28.05;;;14.10;99.90;;;;;;5041256;28;20029;-59
2022/06/08 04:25:41;;;;;;;31.98;24.70;;;14.10;99.90;;;;;;5043633;28;20018;-59
2022/06/08 04:28:07;;;;;;;33.90;26.52;;;14.20;99.90;;;;;;5045628;28;20481;-59
2022/06/08 04:30:33;;;;;;;36.45;26.95;;;14.20;99.90;;;;;;5045437;28;20029;-59
2022/06/08 04:32:59;;;;;;;32.00;25.02;;;14.20;99.90;;;;;;5042213;28;20135;-59
2022/06/08 04:35:26;;;;;;;34.72;27.33;;;14.30;99.90;;;;;;5048671;28;20520;-59
2022/06/08 04:37:52;;;;;;;29.55;24.70;;;14.30;99.90;;;;;;5044931;28;20021;-59
2022/06/08 04:40:19;;;;;;;34.05;26.23;;;14.30;99.90;;;;;;5053871;28;20110;-59
2022/06/08 04:42:44;;;;;;;31.52;24.85;;;14.40;99.90;;;;;;5044131;28;20024;-58
2022/06/08 04:45:11;;;;;;;30.80;24.35;;;14.40;99.90;;;;;;5047302;28;20021;-59
2022/06/08 04:47:37;;;;;;;31.92;26.35;;;14.40;99.90;;;;;;5046127;28;20024;-59
2022/06/08 04:50:05;;;;;;;26.77;22.98;;;14.50;99.90;;;;;;5038666;28;20473;-59
2022/06/08 04:52:31;;;;;;;29.10;24.08;;;14.50;99.90;;;;;;5040243;28;20041;-59
2022/06/08 04:54:57;;;;;;;31.13;24.23;;;14.60;99.90;;;;;;5051908;28;20021;-59
2022/06/08 04:57:23;;;;;;;29.52;23.33;;;14.60;99.90;;;;;;5038742;28;20033;-59
2022/06/08 04:59:49;;;;;;;30.25;22.33;;;14.70;99.90;;;;;;5038769;28;20026;-59
2022/06/08 05:04:59;;;;;;;27.15;21.80;;;14.80;99.90;;;;;;5050527;28;20484;-59
2022/06/08 05:07:24;;;;;;;25.00;21.10;;;14.90;99.90;;;;;;5038371;28;20108;-59
2022/06/08 05:09:50;;;;;;;24.52;20.23;;;14.90;99.90;;;;;;5050052;28;20451;-59
2022/06/08 05:12:16;;;;;;;22.77;19.58;;;15.00;99.90;;;;;;5040366;28;20060;-59
2022/06/08 05:14:42;;;;;;;22.10;19.55;;;15.10;99.90;;;;;;5037434;28;20017;-59
2022/06/08 05:17:07;;;;;;;21.80;18.80;;;15.10;99.90;;;;;;5037995;28;20385;-59
2022/06/08 05:19:33;;;;;;;20.33;18.13;;;15.10;99.90;;;;;;5038078;28;20037;-59
2022/06/08 05:21:59;;;;;;;21.58;18.73;;;15.20;99.90;;;;;;5044249;28;20036;-59
2022/06/08 05:24:24;;;;;;;22.48;18.20;;;15.30;99.90;;;;;;5044310;28;20132;-59
2022/06/08 05:26:50;;;;;;;20.25;17.48;;;15.30;99.90;;;;;;5042606;28;20397;-59
2022/06/08 05:29:15;;;;;;;20.75;18.02;;;15.30;99.90;;;;;;5056418;28;20100;-59
2022/06/08 05:31:41;;;;;;;21.15;17.13;;;15.40;99.90;;;;;;5055557;28;20120;-59
2022/06/08 05:34:06;;;;;;;19.20;16.75;;;15.50;99.90;;;;;;5056947;28;20113;-59
2022/06/08 05:36:32;;;;;;;19.65;16.80;;;15.50;99.90;;;;;;5040559;28;20013;-59
2022/06/08 05:38:58;;;;;;;20.40;16.00;;;15.50;99.90;;;;;;5035885;28;20028;-59
2022/06/08 05:41:24;;;;;;;17.95;14.90;;;15.60;99.90;;;;;;5038670;28;20030;-59
2022/06/08 05:43:49;;;;;;;19.05;16.90;;;15.70;99.90;;;;;;5045810;28;20056;-59
2022/06/08 05:46:16;;;;;;;18.48;15.60;;;15.70;99.90;;;;;;5040372;28;20040;-59
2022/06/08 05:48:42;;;;;;;19.13;16.55;;;15.80;99.90;;;;;;5045042;28;20028;-59
2022/06/08 05:51:08;;;;;;;17.15;15.15;;;15.80;99.90;;;;;;5037590;28;20029;-59
2022/06/08 05:53:33;;;;;;;18.80;16.45;;;15.90;99.90;;;;;;5039545;28;20045;-59
2022/06/08 05:55:59;;;;;;;18.80;15.93;;;15.90;99.90;;;;;;5039553;28;20021;-59
2022/06/08 05:58:24;;;;;;;17.20;15.38;;;16.00;99.90;;;;;;5050759;28;20102;-60
2022/06/08 06:00:50;;;;;;;16.30;14.45;;;16.00;99.90;;;;;;5033079;28;20492;-59
2022/06/08 06:03:16;;;;;;;18.27;16.40;;;16.10;99.90;;;;;;5034885;28;20033;-59
2022/06/08 06:05:42;;;;;;;15.70;14.15;;;16.10;99.90;;;;;;5043322;28;20041;-59
2022/06/08 06:08:09;;;;;;;15.98;14.20;;;16.20;99.90;;;;;;5052595;28;20025;-60
2022/06/08 06:10:37;;;;;;;15.48;13.88;;;16.20;99.90;;;;;;5034447;28;20060;-60
2022/06/08 06:13:04;;;;;;;16.33;13.32;;;16.20;99.90;;;;;;5032573;28;20120;-59
2022/06/08 06:15:29;;;;;;;13.68;12.00;;;16.20;99.90;;;;;;5033415;28;20131;-59
2022/06/08 06:17:55;;;;;;;14.10;12.70;;;16.30;99.90;;;;;;5032260;28;20517;-59
2022/06/08 06:20:20;;;;;;;14.63;13.13;;;16.30;99.90;;;;;;5036063;28;20044;-59
2022/06/08 06:22:47;;;;;;;14.70;12.98;;;16.40;99.90;;;;;;5030217;28;20493;-59
2022/06/08 06:25:13;;;;;;;14.15;12.65;;;16.40;99.90;;;;;;5030272;28;20032;-59
2022/06/08 06:27:38;;;;;;;14.27;12.88;;;16.50;99.90;;;;;;5037572;28;20053;-59
2022/06/08 06:30:06;;;;;;;16.45;13.30;;;16.50;99.90;;;;;;5030254;28;20052;-59
2022/06/08 06:32:34;;;;;;;13.85;12.35;;;16.50;99.90;;;;;;5055929;28;20021;-59
2022/06/08 06:35:01;;;;;;;15.05;11.77;;;16.60;99.90;;;;;;5031013;28;20041;-59
2022/06/08 06:37:28;;;;;;;12.85;11.55;;;16.60;99.90;;;;;;5056258;28;20021;-59
2022/06/08 06:39:54;;;;;;;14.60;11.98;;;16.60;99.90;;;;;;5041567;28;20076;-59
2022/06/08 06:42:23;;;;;;;14.02;10.80;;;16.70;99.90;;;;;;5032131;28;20028;-59
2022/06/08 06:44:49;;;;;;;11.40;10.30;;;16.70;99.90;;;;;;5042376;28;20527;-59
2022/06/08 06:47:14;;;;;;;12.10;10.80;;;16.70;99.90;;;;;;5036372;28;20057;-59
2022/06/08 06:49:40;;;;;;;12.90;11.40;;;16.80;99.90;;;;;;5033683;28;20099;-59
2022/06/08 06:52:06;;;;;;;12.57;11.32;;;16.90;99.90;;;;;;5045808;28;20101;-59
2022/06/08 06:54:32;;;;;;;13.85;10.80;;;17.00;99.90;;;;;;5041095;28;20034;-59
2022/06/08 06:56:58;;;;;;;11.45;10.25;;;17.00;99.90;;;;;;5041782;28;20045;-59
2022/06/08 06:59:24;;;;;;;11.45;9.15;;;17.10;99.90;;;;;;5048269;28;20523;-59
2022/06/08 07:01:49;;;;;;;8.93;7.97;;;17.10;99.90;;;;;;5034942;28;20052;-60
2022/06/08 07:04:18;;;;;;;11.70;8.45;;;17.20;99.90;;;;;;5040644;28;20085;-59
2022/06/08 07:06:44;;;;;;;8.95;8.05;;;17.20;99.90;;;;;;5032981;28;20194;-59
2022/06/08 07:09:09;;;;;;;9.00;8.13;;;17.20;99.90;;;;;;5033082;28;20021;-59
2022/06/08 07:11:37;;;;;;;9.23;8.32;;;17.30;99.90;;;;;;5042584;28;20035;-59
2022/06/08 07:14:05;;;;;;;8.20;7.40;;;17.30;99.90;;;;;;5050692;28;20040;-59
2022/06/08 07:16:32;;;;;;;9.43;8.05;;;17.40;99.90;;;;;;5034051;28;20021;-59
2022/06/08 07:18:58;;;;;;;9.30;8.40;;;17.50;99.90;;;;;;5043977;28;20106;-59
2022/06/08 07:21:24;;;;;;;9.15;8.20;;;17.50;99.90;;;;;;5051344;28;20027;-59
2022/06/08 07:23:49;;;;;;;11.40;7.70;;;17.50;99.90;;;;;;5051767;28;20389;-59
2022/06/08 07:26:17;;;;;;;10.55;8.18;;;17.50;99.90;;;;;;5036989;28;20033;-60
2022/06/08 07:28:43;;;;;;;9.85;7.53;;;17.50;99.90;;;;;;5051569;28;20484;-59
2022/06/08 07:31:12;;;;;;;7.85;7.07;;;17.50;99.90;;;;;;5035012;28;20029;-59
2022/06/08 07:33:38;;;;;;;8.25;7.47;;;17.60;99.90;;;;;;5052677;28;20025;-59
2022/06/08 07:36:04;;;;;;;9.27;7.15;;;17.60;99.90;;;;;;5040717;28;20037;-59
2022/06/08 07:38:30;;;;;;;7.30;6.60;;;17.60;99.90;;;;;;5042620;28;20025;-59
2022/06/08 07:40:56;;;;;;;6.28;5.63;;;17.60;99.90;;;;;;5051710;28;20024;-59
2022/06/08 07:43:22;;;;;;;6.32;5.72;;;17.70;99.90;;;;;;5052273;28;20539;-59
2022/06/08 07:45:47;;;;;;;7.32;6.60;;;17.70;99.90;;;;;;5044601;28;20076;-59
2022/06/08 07:50:58;;;;;;;7.00;5.80;;;18.00;99.90;;;;;;5043701;28;20020;-59
2022/06/08 07:53:23;;;;;;;8.77;6.32;;;18.00;99.90;;;;;;5046182;28;20127;-59
2022/06/08 07:55:49;;;;;;;8.02;6.43;;;18.20;99.90;;;;;;5050353;28;20036;-59
2022/06/08 07:58:18;;;;;;;6.57;5.78;;;18.20;99.90;;;;;;5045834;28;20033;-59
2022/06/08 08:00:47;;;;;;;7.85;6.10;;;18.40;99.90;;;;;;5042237;28;20022;-60
2022/06/08 08:03:16;;;;;;;6.95;5.60;;;18.40;99.90;;;;;;5046653;28;20366;-60
2022/06/08 08:05:44;;;;;;;8.35;4.72;;;18.60;99.90;;;;;;5041070;28;20029;-59
2022/06/08 08:08:10;;;;;;;6.93;5.00;;;18.70;99.90;;;;;;5048327;28;20032;-59
2022/06/08 08:10:36;;;;;;;6.47;5.28;;;18.90;99.90;;;;;;5047342;28;20108;-60
2022/06/08 08:13:02;;;;;;;6.43;4.75;;;18.90;99.90;;;;;;5047346;28;20164;-60
2022/06/08 08:15:29;;;;;;;8.63;5.63;;;18.90;99.90;;;;;;5048527;28;20021;-59
2022/06/08 08:17:55;;;;;;;7.95;5.30;;;19.00;99.90;;;;;;5046359;28;20029;-59
2022/06/08 08:20:21;;;;;;;6.65;5.38;;;19.00;99.90;;;;;;5050367;28;20032;-60
2022/06/08 08:22:47;;;;;;;7.85;4.95;;;19.10;99.90;;;;;;5037122;28;20021;-60
2022/06/08 08:25:22;;;;;;;6.65;5.28;;;19.20;99.90;;;;;;5047330;28;20040;-59
2022/06/08 08:27:48;;;;;;;7.30;3.97;;;19.30;99.20;;;;;;5047023;28;20102;-59
2022/06/08 08:30:18;;;;;;;4.38;3.70;;;19.40;99.20;;;;;;5048856;28;20029;-60
2022/06/08 08:32:44;;;;;;;4.50;3.20;;;19.50;98.30;;;;;;5045211;28;20013;-59
2022/06/08 08:35:10;;;;;;;5.28;3.60;;;19.60;98.10;;;;;;5043525;28;20481;-60
2022/06/08 08:37:36;;;;;;;7.55;3.75;;;19.70;98.40;;;;;;5041271;28;20047;-60
2022/06/08 08:40:04;;;;;;;4.80;3.95;;;19.70;98.10;;;;;;5048148;28;20181;-60
2022/06/08 08:42:30;;;;;;;6.20;3.55;;;19.70;97.70;;;;;;5048976;28;20017;-60
2022/06/08 08:45:03;;;;;;;5.63;3.22;;;19.70;97.30;;;;;;5046443;28;20028;-60
2022/06/08 08:48:02;;;;;;;8.38;3.40;;;19.60;97.30;;;;;;5045966;28;20025;-60
2022/06/08 08:50:33;;;;;;;5.15;3.13;;;19.50;97.20;;;;;;5040723;28;20123;-59
2022/06/08 08:53:23;;;;;;;8.52;3.40;;;19.40;97.40;;;;;;5031548;28;20103;-59
2022/06/08 08:56:00;;;;;;;5.55;3.53;;;19.40;97.80;;;;;;5021081;28;20029;-59
2022/06/08 08:58:29;;;;;;;4.50;3.35;;;19.40;98.10;;;;;;5033739;28;20025;-59
2022/06/08 09:01:20;;;;;;;5.85;3.33;;;19.40;97.70;;;;;;5033975;28;20481;-59
2022/06/08 09:03:56;;;;;;;5.68;3.45;;;19.50;97.70;;;;;;5031092;28;20071;-59
2022/06/08 09:06:24;;;;;;;7.07;3.78;;;19.50;97.40;;;;;;5031464;28;20132;-59
2022/06/08 09:08:53;;;;;;;8.70;3.13;;;19.40;97.60;;;;;;5031738;28;20018;-59
2022/06/08 09:11:23;;;;;;;7.95;3.45;;;19.30;97.90;;;;;;5037360;28;20068;-60
2022/06/08 09:14:03;;;;;;;5.00;3.50;;;19.20;97.40;;;;;;5042038;28;20480;-59
2022/06/08 09:16:39;;;;;;;9.60;3.10;;;19.10;97.40;;;;;;5048518;28;20025;-59
2022/06/08 09:19:41;;;;;;;6.43;3.42;;;19.10;97.70;;;;;;5050258;28;20028;-59
2022/06/08 09:22:06;;;;;;;7.43;3.22;;;19.10;97.50;;;;;;5042408;28;20119;-59
2022/06/08 09:24:40;;;;;;;7.07;3.00;;;19.10;97.40;;;;;;5047937;28;20112;-59
2022/06/08 09:27:22;;;;;;;5.18;3.20;;;19.10;97.60;;;;;;5050401;28;20021;-59
2022/06/08 09:30:08;;;;;;;4.38;3.00;;;19.10;97.30;;;;;;5045208;28;20041;-60
2022/06/08 09:32:49;;;;;;;7.85;3.05;;;19.10;97.70;;;;;;5048788;28;20025;-60
2022/06/08 09:35:31;;;;;;;5.25;2.67;;;19.20;97.70;;;;;;5044393;28;20116;-59
2022/06/08 09:38:06;;;;;;;5.25;3.08;;;19.30;97.50;;;;;;5043010;28;20511;-59
2022/06/08 09:40:44;;;;;;;6.10;2.85;;;19.30;97.70;;;;;;5046885;28;20442;-59
2022/06/08 09:44:00;;;;;;;5.05;3.00;;;19.20;97.50;;;;;;5035076;28;20072;-59
2022/06/08 09:52:46;;;;;;;3.70;2.17;;;19.30;97.10;;;;;;5040140;28;20110;-59
2022/06/08 09:55:23;;;;;;;5.15;2.17;;;19.30;96.70;;;;;;5036632;28;20492;-59
2022/06/08 09:58:10;;;;;;;3.75;2.08;;;19.40;96.60;;;;;;5034390;28;20025;-60
2022/06/08 10:00:49;;;;;;;5.13;2.35;;;19.50;96.20;;;;;;5036799;28;20020;-59
2022/06/08 10:03:57;;;;;;;5.80;2.40;;;19.60;95.80;;;;;;5033570;28;20100;-59
2022/06/08 10:07:07;;;;;;;4.10;2.37;;;19.50;95.10;;;;;;5039565;28;20419;-59
2022/06/08 10:10:14;;;;;;;4.93;2.00;;;19.40;95.20;;;;;;5042653;28;20070;-59
2022/06/08 10:12:58;;;;;;;4.57;1.60;;;19.40;95.20;;;;;;5047088;28;20063;-60
2022/06/08 10:15:42;;;;;;;6.47;1.90;;;19.30;95.10;;;;;;5046153;28;20104;-59
2022/06/08 10:18:18;;;;;;;5.80;2.35;;;19.30;95.20;;;;;;5042636;28;20026;-59
2022/06/08 10:20:54;;;;;;;9.65;2.03;;;19.30;95.10;;;;;;5045973;28;20522;-60
2022/06/08 10:23:26;;;;;;;3.17;1.33;;;19.20;94.90;;;;;;5047250;28;20025;-59
2022/06/08 10:26:00;;;;;;;5.53;1.25;;;19.10;94.60;;;;;;5041094;28;20033;-60
2022/06/08 10:28:36;;;;;;;4.43;1.50;;;19.10;94.30;;;;;;5032565;28;20380;-59
2022/06/08 10:31:30;;;;;;;3.75;1.05;;;19.00;94.30;;;;;;5033289;28;20018;-59
2022/06/08 10:34:15;;;;;;;7.15;2.33;;;18.90;94.30;;;;;;5043907;28;20510;-59
2022/06/08 10:36:41;;;;;;;4.50;1.02;;;18.80;94.20;;;;;;5038138;28;20416;-60
2022/06/08 10:39:08;;;;;;;4.50;1.30;;;18.70;94.60;;;;;;5033581;28;20112;-59
2022/06/08 10:44:32;;;;;;;7.15;1.60;;;18.80;95.20;;;;;;5033659;28;20048;-59
2022/06/08 10:47:18;;;;;;;4.65;1.77;;;18.80;95.40;;;;;;5032339;28;20439;-59
2022/06/08 10:49:50;;;;;;;4.65;2.03;;;18.80;95.90;;;;;;5033782;28;20108;-59
2022/06/08 10:52:39;;;;;;;5.70;1.58;;;18.70;95.90;;;;;;5033874;28;20041;-59
2022/06/08 10:55:17;;;;;;;4.72;1.90;;;18.70;96.20;;;;;;5046986;28;20485;-59
2022/06/08 10:57:50;;;;;;;8.05;2.25;;;18.60;96.40;;;;;;5046712;28;20100;-59
2022/06/08 11:00:22;;;;;;;4.95;2.22;;;18.50;96.70;;;;;;5047012;28;20362;-59
2022/06/08 11:03:01;;;;;;;5.00;1.88;;;18.50;97.20;;;;;;5044575;28;20144;-59
2022/06/08 11:05:56;;;;;;;5.20;2.15;;;18.50;97.60;;;;;;5038360;28;20109;-60
2022/06/08 11:08:23;;;;;;;6.15;2.55;;;18.40;97.80;;;;;;5030787;28;20034;-60
2022/06/08 11:10:54;;;;;;;7.07;2.67;;;18.30;98.70;;;;;;5035609;28;20021;-59
2022/06/08 11:13:22;;;;;;;4.47;1.67;;;18.10;99.00;;;;;;5040217;28;20025;-59
2022/06/08 11:16:20;;;;;;;7.15;1.60;;;18.00;99.20;;;;;;5036996;28;20026;-59
2022/06/08 11:18:58;;;;;;;7.22;1.83;;;18.00;98.90;;;;;;5036734;28;20115;-59
2022/06/08 11:21:49;;;;;;;6.23;1.90;;;17.80;99.40;;;;;;5047221;28;20044;-59
2022/06/08 11:24:29;;;;;;;6.80;2.13;;;17.70;99.50;;;;;;5052612;28;20096;-59
2022/06/08 11:27:09;;;;;;;7.63;1.90;;;17.70;99.90;;;;;;5048780;28;20025;-60
2022/06/08 11:29:36;;;;;;;5.88;1.88;;;17.60;99.90;;;;;;5048032;28;20420;-59
2022/06/08 11:32:03;;;;;;;4.75;1.70;;;17.50;99.90;;;;;;5040748;28;20017;-59
2022/06/08 11:34:57;;;;;;;7.03;2.08;;;17.50;99.90;;;;;;5044674;28;20023;-59
2022/06/08 11:37:53;;;;;;;5.43;1.90;;;17.50;99.90;;;;;;5050445;28;20030;-59
2022/06/08 11:40:33;;;;;;;4.65;2.33;;;17.50;99.90;;;;;;5046974;28;20028;-59
2022/06/08 11:43:07;;;;;;;4.63;2.47;;;17.40;99.90;;;;;;5048163;28;20033;-59
2022/06/08 11:45:40;;;;;;;7.65;2.35;;;17.30;99.90;;;;;;5049566;28;20518;-59
2022/06/08 11:48:20;;;;;;;8.50;2.88;;;17.30;99.90;;;;;;5046336;28;20044;-60
2022/06/08 11:50:51;;;;;;;7.55;2.97;;;17.20;99.90;;;;;;5052728;28;20083;-59
2022/06/08 11:53:28;;;;;;;6.22;2.25;;;17.20;99.90;;;;;;5047822;28;20488;-60
2022/06/08 11:56:09;;;;;;;7.40;1.92;;;17.20;99.90;;;;;;5046853;28;20464;-60
2022/06/08 11:58:36;;;;;;;6.00;1.73;;;17.20;99.90;;;;;;5052128;28;20040;-60
2022/06/08 12:01:14;;;;;;;7.13;2.00;;;17.20;99.90;;;;;;5050829;28;20495;-59
2022/06/08 12:03:44;;;;;;;3.72;1.52;;;17.30;99.90;;;;;;5050126;28;20108;-59
2022/06/08 12:06:30;;;;;;;6.15;1.73;;;17.20;99.90;;;;;;5044526;28;20032;-60
2022/06/08 12:08:58;;;;;;;8.65;3.10;;;17.30;99.90;;;;;;5045083;28;20017;-60
2022/06/08 12:11:30;;;;;;;3.85;1.50;;;17.30;99.90;;;;;;5044989;28;20235;-60
2022/06/08 12:14:13;;;;;;;6.82;1.95;;;17.30;99.90;;;;;;5048687;28;20029;-60
2022/06/08 12:17:05;;;;;;;4.35;1.92;;;17.30;99.90;;;;;;5061020;28;20108;-60
2022/06/08 12:19:46;;;;;;;7.43;2.40;;;17.30;99.90;;;;;;5048242;28;20028;-60
2022/06/08 12:22:25;;;;;;;8.38;2.55;;;17.20;99.90;;;;;;5050161;28;20025;-59
2022/06/08 12:25:04;;;;;;;6.65;1.83;;;17.10;99.90;;;;;;5049159;28;20567;-60
2022/06/08 12:27:38;;;;;;;6.65;1.95;;;17.10;99.90;;;;;;5046979;28;20048;-59
2022/06/08 12:30:20;;;;;;;5.53;1.77;;;17.00;99.90;;;;;;5048806;28;20056;-60
2022/06/08 12:32:55;;;;;;;3.20;1.50;;;16.90;99.90;;;;;;5042252;28;20108;-60
2022/06/08 12:35:25;;;;;;;4.93;2.10;;;16.90;99.90;;;;;;5047272;28;20018;-60
2022/06/08 12:38:24;;;;;;;5.22;1.80;;;16.80;99.90;;;;;;5043808;28;20078;-60
2022/06/08 12:40:58;;;;;;;6.10;2.42;;;16.80;99.90;;;;;;5041330;28;20031;-60
2022/06/08 12:43:53;;;;;;;3.67;2.00;;;16.80;99.90;;;;;;5044875;28;20035;-60
2022/06/08 12:46:27;;;;;;;8.18;3.22;;;16.90;99.90;;;;;;5036141;28;20473;-60
2022/06/08 12:49:20;;;;;;;9.77;3.45;;;16.90;99.90;;;;;;5047957;28;20017;-60
2022/06/08 12:51:51;;;;;;;6.53;3.35;;;16.90;99.90;;;;;;5046083;28;20034;-59
2022/06/08 12:54:23;;;;;;;5.97;2.60;;;16.70;99.90;;;;;;5033077;28;20037;-60
2022/06/08 12:56:53;;;;;;;7.78;2.78;;;16.60;99.90;;;;;;5040285;28;20025;-60
2022/06/08 12:59:19;;;;;;;8.52;2.28;;;16.50;99.90;;;;;;5046233;28;20388;-60
2022/06/08 13:01:45;;;;;;;3.88;2.05;;;16.30;99.90;;;;;;5051240;28;20042;-59
2022/06/08 13:04:17;;;;;;;3.65;1.65;;;16.30;99.90;;;;;;5055970;28;20037;-60
2022/06/08 13:06:43;;;;;;;5.10;2.78;;;16.20;99.90;;;;;;5041815;28;20477;-60
2022/06/08 13:09:14;;;;;;;4.90;2.25;;;16.20;99.90;;;;;;5050474;28;20028;-60
2022/06/08 13:11:42;;;;;;;5.65;2.22;;;16.20;99.90;;;;;;5046853;28;20017;-60
2022/06/08 13:14:13;;;;;;;3.67;1.83;;;16.20;99.90;;;;;;5051238;28;20044;-60
2022/06/08 13:16:39;;;;;;;7.13;1.95;;;16.20;99.90;;;;;;5052237;28;20385;-60
2022/06/08 13:19:04;;;;;;;5.00;1.90;;;16.20;99.90;;;;;;5052919;28;20515;-60
2022/06/08 13:21:30;;;;;;;6.40;2.00;;;16.20;99.90;;;;;;5050709;28;20022;-60